sensor_id;sensor_type;location;lat;lon;timestamp;pressure;altitude;pressure_sealevel;temperature;humidity
51807;BME280;37865;51.304;9.536;2023-08-01T00:01:45;98476.44;;;16.65;100.00
51807;BME280;37865;51.304;9.536;2023-08-01T00:04:10;98458.97;;;16.70;100.00
51807;BME280;37865;51.304;9.536;2023-08-01T00:06:35;98460.56;;;16.71;100.00
51807;BME280;37865;51.304;9.536;2023-08-01T00:09:01;98450.84;;;16.73;100.00
51807;BME280;37865;51.304;9.536;2023-08-01T00:11:26;98439.97;;;16.77;100.00
51807;BME280;37865;51.304;9.536;2023-08-01T00:13:51;98430.59;;;16.78;100.00
51807;BME280;37865;51.304;9.536;2023-08-01T00:16:16;98413.41;;;16.81;100.00
51807;BME280;37865;51.304;9.536;2023-08-01T00:18:42;98394.97;;;16.81;100.00
51807;BME280;37865;51.304;9.536;2023-08-01T00:21:07;98397.38;;;16.83;100.00
51807;BME280;37865;51.304;9.536;2023-08-01T00:23:35;98378.91;;;16.83;100.00
51807;BME280;37865;51.304;9.536;2023-08-01T00:26:01;98357.38;;;16.85;100.00
51807;BME280;37865;51.304;9.536;2023-08-01T00:28:26;98353.16;;;16.88;100.00
51807;BME280;37865;51.304;9.536;2023-08-01T00:31:04;98351.22;;;16.88;100.00
51807;BME280;37865;51.304;9.536;2023-08-01T00:33:30;98348.78;;;16.87;100.00
51807;BME280;37865;51.304;9.536;2023-08-01T00:35:55;98362.06;;;16.85;100.00
51807;BME280;37865;51.304;9.536;2023-08-01T00:38:20;98353.03;;;16.84;100.00
51807;BME280;37865;51.304;9.536;2023-08-01T00:40:45;98341.31;;;16.87;100.00
51807;BME280;37865;51.304;9.536;2023-08-01T00:43:12;98359.66;;;16.83;100.00
51807;BME280;37865;51.304;9.536;2023-08-01T00:45:37;98360.31;;;16.80;100.00
51807;BME280;37865;51.304;9.536;2023-08-01T00:48:03;98356.28;;;16.78;100.00
51807;BME280;37865;51.304;9.536;2023-08-01T00:50:29;98356.91;;;16.75;100.00
51807;BME280;37865;51.304;9.536;2023-08-01T00:52:54;98353.38;;;16.74;100.00
51807;BME280;37865;51.304;9.536;2023-08-01T00:55:21;98351.75;;;16.73;100.00
51807;BME280;37865;51.304;9.536;2023-08-01T00:57:47;98350.63;;;16.74;100.00
51807;BME280;37865;51.304;9.536;2023-08-01T01:00:12;98354.50;;;16.73;100.00
51807;BME280;37865;51.304;9.536;2023-08-01T01:02:38;98351.41;;;16.75;100.00
51807;BME280;37865;51.304;9.536;2023-08-01T01:05:04;98354.16;;;16.75;100.00
51807;BME280;37865;51.304;9.536;2023-08-01T01:07:30;98363.56;;;16.74;100.00
51807;BME280;37865;51.304;9.536;2023-08-01T01:09:57;98366.81;;;16.76;100.00
51807;BME280;37865;51.304;9.536;2023-08-01T01:12:23;98375.06;;;16.76;100.00
51807;BME280;37865;51.304;9.536;2023-08-01T01:14:48;98377.00;;;16.75;100.00
51807;BME280;37865;51.304;9.536;2023-08-01T01:17:13;98373.13;;;16.76;100.00
51807;BME280;37865;51.304;9.536;2023-08-01T01:19:39;98377.81;;;16.76;100.00
51807;BME280;37865;51.304;9.536;2023-08-01T01:22:05;98373.91;;;16.77;100.00
51807;BME280;37865;51.304;9.536;2023-08-01T01:24:32;98375.41;;;16.74;100.00
51807;BME280;37865;51.304;9.536;2023-08-01T01:26:58;98363.25;;;16.75;100.00
51807;BME280;37865;51.304;9.536;2023-08-01T01:29:26;98352.22;;;16.75;100.00
51807;BME280;37865;51.304;9.536;2023-08-01T01:31:52;98361.63;;;16.74;100.00
51807;BME280;37865;51.304;9.536;2023-08-01T01:34:17;98351.75;;;16.73;100.00
51807;BME280;37865;51.304;9.536;2023-08-01T01:36:43;98352.88;;;16.72;100.00
51807;BME280;37865;51.304;9.536;2023-08-01T01:39:08;98352.09;;;16.72;100.00
51807;BME280;37865;51.304;9.536;2023-08-01T01:41:33;98353.69;;;16.73;100.00
51807;BME280;37865;51.304;9.536;2023-08-01T01:43:59;98354.50;;;16.73;100.00
51807;BME280;37865;51.304;9.536;2023-08-01T01:46:24;98354.97;;;16.75;100.00
51807;BME280;37865;51.304;9.536;2023-08-01T01:48:49;98348.34;;;16.76;100.00
51807;BME280;37865;51.304;9.536;2023-08-01T01:51:15;98348.03;;;16.78;100.00
51807;BME280;37865;51.304;9.536;2023-08-01T01:53:40;98344.59;;;16.81;100.00
51807;BME280;37865;51.304;9.536;2023-08-01T01:56:05;98334.41;;;16.81;100.00
51807;BME280;37865;51.304;9.536;2023-08-01T01:58:30;98326.63;;;16.83;100.00
51807;BME280;37865;51.304;9.536;2023-08-01T02:00:56;98327.44;;;16.84;100.00
51807;BME280;37865;51.304;9.536;2023-08-01T02:03:21;98313.66;;;16.84;100.00
51807;BME280;37865;51.304;9.536;2023-08-01T02:05:46;98303.47;;;16.84;100.00
51807;BME280;37865;51.304;9.536;2023-08-01T02:08:12;98293.91;;;16.82;100.00
51807;BME280;37865;51.304;9.536;2023-08-01T02:10:37;98278.84;;;16.79;100.00
51807;BME280;37865;51.304;9.536;2023-08-01T02:13:02;98268.19;;;16.78;100.00
51807;BME280;37865;51.304;9.536;2023-08-01T02:15:28;98264.16;;;16.75;100.00
51807;BME280;37865;51.304;9.536;2023-08-01T02:17:54;98253.00;;;16.72;100.00
51807;BME280;37865;51.304;9.536;2023-08-01T02:20:20;98253.31;;;16.70;100.00
51807;BME280;37865;51.304;9.536;2023-08-01T02:22:45;98243.78;;;16.68;100.00
51807;BME280;37865;51.304;9.536;2023-08-01T02:25:10;98232.31;;;16.66;100.00
51807;BME280;37865;51.304;9.536;2023-08-01T02:27:36;98235.72;;;16.63;100.00
51807;BME280;37865;51.304;9.536;2023-08-01T02:30:02;98212.41;;;16.60;100.00
51807;BME280;37865;51.304;9.536;2023-08-01T02:32:27;98172.59;;;16.58;100.00
51807;BME280;37865;51.304;9.536;2023-08-01T02:34:52;98182.34;;;16.55;100.00
51807;BME280;37865;51.304;9.536;2023-08-01T02:37:18;98177.16;;;16.54;100.00
51807;BME280;37865;51.304;9.536;2023-08-01T02:39:43;98191.72;;;16.54;100.00
51807;BME280;37865;51.304;9.536;2023-08-01T02:42:09;98188.16;;;16.54;100.00
51807;BME280;37865;51.304;9.536;2023-08-01T02:44:34;98201.13;;;16.53;100.00
51807;BME280;37865;51.304;9.536;2023-08-01T02:46:59;98191.72;;;16.54;100.00
51807;BME280;37865;51.304;9.536;2023-08-01T02:49:25;98194.94;;;16.56;100.00
51807;BME280;37865;51.304;9.536;2023-08-01T02:51:50;98199.31;;;16.57;100.00
51807;BME280;37865;51.304;9.536;2023-08-01T02:54:16;98202.88;;;16.58;100.00
51807;BME280;37865;51.304;9.536;2023-08-01T02:56:41;98180.53;;;16.59;100.00
51807;BME280;37865;51.304;9.536;2023-08-01T02:59:07;98148.63;;;16.58;100.00
51807;BME280;37865;51.304;9.536;2023-08-01T03:01:36;98125.81;;;16.58;100.00
51807;BME280;37865;51.304;9.536;2023-08-01T03:04:03;98100.25;;;16.57;100.00
51807;BME280;37865;51.304;9.536;2023-08-01T03:06:28;98082.59;;;16.58;100.00
51807;BME280;37865;51.304;9.536;2023-08-01T03:08:54;98069.19;;;16.57;100.00
51807;BME280;37865;51.304;9.536;2023-08-01T03:11:19;98081.00;;;16.57;100.00
51807;BME280;37865;51.304;9.536;2023-08-01T03:13:44;98092.00;;;16.57;100.00
51807;BME280;37865;51.304;9.536;2023-08-01T03:16:09;98113.69;;;16.59;100.00
51807;BME280;37865;51.304;9.536;2023-08-01T03:18:35;98118.06;;;16.60;100.00
51807;BME280;37865;51.304;9.536;2023-08-01T03:21:00;98105.91;;;16.61;100.00
51807;BME280;37865;51.304;9.536;2023-08-01T03:23:29;98109.13;;;16.63;100.00
51807;BME280;37865;51.304;9.536;2023-08-01T03:25:54;98117.03;;;16.64;100.00
51807;BME280;37865;51.304;9.536;2023-08-01T03:28:19;98140.69;;;16.65;100.00
51807;BME280;37865;51.304;9.536;2023-08-01T03:30:45;98163.16;;;16.67;100.00
51807;BME280;37865;51.304;9.536;2023-08-01T03:33:10;98163.97;;;16.68;100.00
51807;BME280;37865;51.304;9.536;2023-08-01T03:35:35;98168.00;;;16.70;100.00
51807;BME280;37865;51.304;9.536;2023-08-01T03:38:01;98177.06;;;16.71;100.00
51807;BME280;37865;51.304;9.536;2023-08-01T03:40:26;98174.31;;;16.71;100.00
51807;BME280;37865;51.304;9.536;2023-08-01T03:42:51;98183.38;;;16.71;100.00
51807;BME280;37865;51.304;9.536;2023-08-01T03:45:17;98169.63;;;16.71;100.00
51807;BME280;37865;51.304;9.536;2023-08-01T03:47:42;98142.09;;;16.71;100.00
51807;BME280;37865;51.304;9.536;2023-08-01T03:50:08;98115.69;;;16.70;100.00
51807;BME280;37865;51.304;9.536;2023-08-01T03:52:33;98073.16;;;16.68;100.00
51807;BME280;37865;51.304;9.536;2023-08-01T03:54:58;98054.56;;;16.65;100.00
51807;BME280;37865;51.304;9.536;2023-08-01T03:57:24;98038.38;;;16.63;100.00
51807;BME280;37865;51.304;9.536;2023-08-01T03:59:49;98059.59;;;16.63;100.00
51807;BME280;37865;51.304;9.536;2023-08-01T04:02:14;98073.00;;;16.64;100.00
51807;BME280;37865;51.304;9.536;2023-08-01T04:04:39;98067.50;;;16.64;100.00
51807;BME280;37865;51.304;9.536;2023-08-01T04:07:05;98060.06;;;16.65;100.00
51807;BME280;37865;51.304;9.536;2023-08-01T04:09:30;98051.44;;;16.66;100.00
51807;BME280;37865;51.304;9.536;2023-08-01T04:11:56;98049.97;;;16.69;100.00
51807;BME280;37865;51.304;9.536;2023-08-01T04:14:22;98066.97;;;16.71;100.00
51807;BME280;37865;51.304;9.536;2023-08-01T04:16:48;98079.59;;;16.72;100.00
51807;BME280;37865;51.304;9.536;2023-08-01T04:19:13;98076.50;;;16.73;100.00
51807;BME280;37865;51.304;9.536;2023-08-01T04:21:39;98070.34;;;16.76;100.00
51807;BME280;37865;51.304;9.536;2023-08-01T04:24:04;98071.94;;;16.77;100.00
51807;BME280;37865;51.304;9.536;2023-08-01T04:26:30;98082.59;;;16.79;100.00
51807;BME280;37865;51.304;9.536;2023-08-01T04:28:55;98071.28;;;16.80;100.00
51807;BME280;37865;51.304;9.536;2023-08-01T04:31:20;98069.31;;;16.81;100.00
51807;BME280;37865;51.304;9.536;2023-08-01T04:33:46;98048.91;;;16.82;100.00
51807;BME280;37865;51.304;9.536;2023-08-01T04:36:11;98064.28;;;16.83;100.00
51807;BME280;37865;51.304;9.536;2023-08-01T04:38:36;98052.13;;;16.84;100.00
51807;BME280;37865;51.304;9.536;2023-08-01T04:41:01;98054.53;;;16.85;100.00
51807;BME280;37865;51.304;9.536;2023-08-01T04:43:28;98084.34;;;16.83;100.00
51807;BME280;37865;51.304;9.536;2023-08-01T04:45:53;98077.72;;;16.84;100.00
51807;BME280;37865;51.304;9.536;2023-08-01T04:48:18;98055.34;;;16.86;100.00
51807;BME280;37865;51.304;9.536;2023-08-01T04:50:44;98050.97;;;16.85;100.00
51807;BME280;37865;51.304;9.536;2023-08-01T04:53:10;98067.84;;;16.83;100.00
51807;BME280;37865;51.304;9.536;2023-08-01T04:55:36;98069.00;;;16.82;100.00
51807;BME280;37865;51.304;9.536;2023-08-01T04:58:01;98057.97;;;16.82;100.00
51807;BME280;37865;51.304;9.536;2023-08-01T05:00:27;98061.06;;;16.81;100.00
51807;BME280;37865;51.304;9.536;2023-08-01T05:02:52;98058.66;;;16.79;100.00
51807;BME280;37865;51.304;9.536;2023-08-01T05:05:17;98051.53;;;16.78;100.00
51807;BME280;37865;51.304;9.536;2023-08-01T05:07:42;98054.88;;;16.84;100.00
51807;BME280;37865;51.304;9.536;2023-08-01T05:10:08;98047.44;;;16.84;100.00
51807;BME280;37865;51.304;9.536;2023-08-01T05:12:33;98039.66;;;16.86;100.00
51807;BME280;37865;51.304;9.536;2023-08-01T05:14:59;98053.06;;;16.88;100.00
51807;BME280;37865;51.304;9.536;2023-08-01T05:17:24;98049.16;;;16.89;100.00
51807;BME280;37865;51.304;9.536;2023-08-01T05:19:49;98049.16;;;16.89;100.00
51807;BME280;37865;51.304;9.536;2023-08-01T05:22:14;98063.06;;;16.93;100.00
51807;BME280;37865;51.304;9.536;2023-08-01T05:24:40;98066.28;;;16.95;100.00
51807;BME280;37865;51.304;9.536;2023-08-01T05:27:05;98071.09;;;16.98;100.00
51807;BME280;37865;51.304;9.536;2023-08-01T05:29:31;98075.94;;;17.01;100.00
51807;BME280;37865;51.304;9.536;2023-08-01T05:31:56;98077.91;;;17.00;100.00
51807;BME280;37865;51.304;9.536;2023-08-01T05:34:21;98083.06;;;17.02;100.00
51807;BME280;37865;51.304;9.536;2023-08-01T05:36:47;98087.91;;;17.05;100.00
51807;BME280;37865;51.304;9.536;2023-08-01T05:39:12;98109.13;;;17.04;100.00
51807;BME280;37865;51.304;9.536;2023-08-01T05:41:37;98113.03;;;17.03;100.00
51807;BME280;37865;51.304;9.536;2023-08-01T05:44:03;98114.56;;;16.92;100.00
51807;BME280;37865;51.304;9.536;2023-08-01T05:46:29;98120.66;;;16.77;100.00
51807;BME280;37865;51.304;9.536;2023-08-01T05:48:54;98140.34;;;16.67;100.00
51807;BME280;37865;51.304;9.536;2023-08-01T05:51:20;98140.72;;;16.57;100.00
51807;BME280;37865;51.304;9.536;2023-08-01T05:53:45;98145.16;;;16.49;100.00
51807;BME280;37865;51.304;9.536;2023-08-01T05:56:10;98142.53;;;16.44;100.00
51807;BME280;37865;51.304;9.536;2023-08-01T05:58:36;98143.69;;;16.43;100.00
51807;BME280;37865;51.304;9.536;2023-08-01T06:01:01;98146.75;;;16.42;100.00
51807;BME280;37865;51.304;9.536;2023-08-01T06:03:26;98141.59;;;16.40;100.00
51807;BME280;37865;51.304;9.536;2023-08-01T06:05:52;98146.13;;;16.45;100.00
51807;BME280;37865;51.304;9.536;2023-08-01T06:08:17;98150.94;;;16.48;100.00
51807;BME280;37865;51.304;9.536;2023-08-01T06:10:43;98166.66;;;16.47;100.00
51807;BME280;37865;51.304;9.536;2023-08-01T06:13:09;98169.72;;;16.46;100.00
51807;BME280;37865;51.304;9.536;2023-08-01T06:15:34;98180.13;;;16.40;100.00
51807;BME280;37865;51.304;9.536;2023-08-01T06:17:59;98171.72;;;16.37;100.00
51807;BME280;37865;51.304;9.536;2023-08-01T06:20:25;98172.84;;;16.36;100.00
51807;BME280;37865;51.304;9.536;2023-08-01T06:22:50;98170.56;;;16.38;100.00
51807;BME280;37865;51.304;9.536;2023-08-01T06:25:16;98167.16;;;16.41;100.00
51807;BME280;37865;51.304;9.536;2023-08-01T06:27:41;98171.53;;;16.42;100.00
51807;BME280;37865;51.304;9.536;2023-08-01T06:30:07;98166.84;;;16.42;100.00
51807;BME280;37865;51.304;9.536;2023-08-01T06:32:32;98182.22;;;16.43;100.00
51807;BME280;37865;51.304;9.536;2023-08-01T06:34:58;98179.25;;;16.48;100.00
51807;BME280;37865;51.304;9.536;2023-08-01T06:37:26;98180.72;;;16.54;100.00
51807;BME280;37865;51.304;9.536;2023-08-01T06:39:51;98185.84;;;16.64;100.00
51807;BME280;37865;51.304;9.536;2023-08-01T06:42:16;98203.97;;;16.65;100.00
51807;BME280;37865;51.304;9.536;2023-08-01T06:44:42;98203.03;;;16.61;100.00
51807;BME280;37865;51.304;9.536;2023-08-01T06:47:07;98207.72;;;16.61;100.00
51807;BME280;37865;51.304;9.536;2023-08-01T06:49:32;98218.72;;;16.61;100.00
51807;BME280;37865;51.304;9.536;2023-08-01T06:51:58;98216.09;;;16.64;100.00
51807;BME280;37865;51.304;9.536;2023-08-01T06:54:23;98208.78;;;16.68;100.00
51807;BME280;37865;51.304;9.536;2023-08-01T06:56:48;98216.88;;;16.73;100.00
51807;BME280;37865;51.304;9.536;2023-08-01T06:59:14;98223.81;;;16.79;100.00
51807;BME280;37865;51.304;9.536;2023-08-01T07:01:41;98220.41;;;16.82;100.00
51807;BME280;37865;51.304;9.536;2023-08-01T07:04:08;98226.50;;;16.88;100.00
51807;BME280;37865;51.304;9.536;2023-08-01T07:06:34;98213.81;;;16.96;100.00
51807;BME280;37865;51.304;9.536;2023-08-01T07:08:59;98227.75;;;16.99;100.00
51807;BME280;37865;51.304;9.536;2023-08-01T07:11:24;98229.81;;;17.02;100.00
51807;BME280;37865;51.304;9.536;2023-08-01T07:13:50;98235.66;;;17.01;100.00
51807;BME280;37865;51.304;9.536;2023-08-01T07:16:15;98229.00;;;17.02;100.00
51807;BME280;37865;51.304;9.536;2023-08-01T07:18:40;98230.28;;;17.04;100.00
51807;BME280;37865;51.304;9.536;2023-08-01T07:21:06;98239.50;;;17.08;100.00
51807;BME280;37865;51.304;9.536;2023-08-01T07:23:34;98233.69;;;17.10;100.00
51807;BME280;37865;51.304;9.536;2023-08-01T07:25:59;98245.63;;;17.14;100.00
51807;BME280;37865;51.304;9.536;2023-08-01T07:28:24;98248.50;;;17.17;100.00
51807;BME280;37865;51.304;9.536;2023-08-01T07:31:01;98242.66;;;17.19;100.00
51807;BME280;37865;51.304;9.536;2023-08-01T07:33:27;98239.25;;;17.22;100.00
51807;BME280;37865;51.304;9.536;2023-08-01T07:35:52;98252.22;;;17.21;100.00
51807;BME280;37865;51.304;9.536;2023-08-01T07:38:17;98249.13;;;17.23;100.00
51807;BME280;37865;51.304;9.536;2023-08-01T07:40:43;98255.38;;;17.32;100.00
51807;BME280;37865;51.304;9.536;2023-08-01T07:43:08;98252.34;;;17.45;100.00
51807;BME280;37865;51.304;9.536;2023-08-01T07:45:34;98269.47;;;17.59;100.00
51807;BME280;37865;51.304;9.536;2023-08-01T07:48:00;98260.91;;;17.73;100.00
51807;BME280;37865;51.304;9.536;2023-08-01T07:50:25;98268.41;;;17.85;100.00
51807;BME280;37865;51.304;9.536;2023-08-01T07:52:51;98260.53;;;17.95;100.00
51807;BME280;37865;51.304;9.536;2023-08-01T07:55:16;98259.91;;;18.10;100.00
51807;BME280;37865;51.304;9.536;2023-08-01T07:57:43;98273.72;;;18.22;100.00
51807;BME280;37865;51.304;9.536;2023-08-01T08:00:09;98261.56;;;18.23;100.00
51807;BME280;37865;51.304;9.536;2023-08-01T08:02:36;98273.53;;;18.27;99.36
51807;BME280;37865;51.304;9.536;2023-08-01T08:05:02;98263.97;;;18.25;98.46
51807;BME280;37865;51.304;9.536;2023-08-01T08:07:27;98265.72;;;18.29;97.55
51807;BME280;37865;51.304;9.536;2023-08-01T08:09:52;98261.94;;;18.34;95.29
51807;BME280;37865;51.304;9.536;2023-08-01T08:12:23;98257.59;;;18.45;93.92
51807;BME280;37865;51.304;9.536;2023-08-01T08:14:48;98270.72;;;18.60;90.95
51807;BME280;37865;51.304;9.536;2023-08-01T08:17:14;98274.56;;;18.68;90.96
51807;BME280;37865;51.304;9.536;2023-08-01T08:19:40;98279.16;;;18.76;89.40
51807;BME280;37865;51.304;9.536;2023-08-01T08:22:05;98270.97;;;18.79;89.43
51807;BME280;37865;51.304;9.536;2023-08-01T08:24:31;98264.78;;;18.94;89.93
51807;BME280;37865;51.304;9.536;2023-08-01T08:26:56;98273.72;;;19.15;89.17
51807;BME280;37865;51.304;9.536;2023-08-01T08:29:22;98274.88;;;19.26;86.94
51807;BME280;37865;51.304;9.536;2023-08-01T08:31:47;98278.22;;;19.44;83.70
51807;BME280;37865;51.304;9.536;2023-08-01T08:34:13;98278.09;;;19.53;79.11
51807;BME280;37865;51.304;9.536;2023-08-01T08:36:38;98271.94;;;19.59;78.78
51807;BME280;37865;51.304;9.536;2023-08-01T08:39:03;98276.66;;;19.71;77.32
51807;BME280;37865;51.304;9.536;2023-08-01T08:41:34;98278.22;;;20.12;78.13
51807;BME280;37865;51.304;9.536;2023-08-01T08:44:01;98278.91;;;20.21;75.54
51807;BME280;37865;51.304;9.536;2023-08-01T08:46:32;98280.63;;;20.25;75.58
51807;BME280;37865;51.304;9.536;2023-08-01T08:48:59;98287.13;;;20.33;75.85
51807;BME280;37865;51.304;9.536;2023-08-01T08:51:29;98282.59;;;20.40;73.65
51807;BME280;37865;51.304;9.536;2023-08-01T08:53:56;98290.09;;;20.40;73.49
51807;BME280;37865;51.304;9.536;2023-08-01T08:56:22;98295.28;;;20.41;74.27
51807;BME280;37865;51.304;9.536;2023-08-01T08:58:48;98289.53;;;20.34;73.91
51807;BME280;37865;51.304;9.536;2023-08-01T09:01:14;98284.06;;;20.22;74.12
51807;BME280;37865;51.304;9.536;2023-08-01T09:03:40;98293.22;;;20.11;73.88
51807;BME280;37865;51.304;9.536;2023-08-01T09:06:14;98312.38;;;20.03;73.01
51807;BME280;37865;51.304;9.536;2023-08-01T09:08:46;98287.63;;;19.95;73.87
51807;BME280;37865;51.304;9.536;2023-08-01T09:11:15;98300.63;;;20.07;75.24
51807;BME280;37865;51.304;9.536;2023-08-01T09:13:40;98298.59;;;20.19;76.71
51807;BME280;37865;51.304;9.536;2023-08-01T09:16:06;98296.03;;;20.26;76.08
51807;BME280;37865;51.304;9.536;2023-08-01T09:18:31;98301.69;;;20.30;75.84
51807;BME280;37865;51.304;9.536;2023-08-01T09:20:57;98292.59;;;20.29;74.54
51807;BME280;37865;51.304;9.536;2023-08-01T09:23:27;98302.63;;;20.49;75.06
51807;BME280;37865;51.304;9.536;2023-08-01T09:25:52;98300.31;;;20.82;74.27
51807;BME280;37865;51.304;9.536;2023-08-01T09:28:23;98291.56;;;20.80;71.64
51807;BME280;37865;51.304;9.536;2023-08-01T09:30:53;98292.63;;;20.76;72.49
51807;BME280;37865;51.304;9.536;2023-08-01T09:33:23;98286.75;;;20.77;73.09
51807;BME280;37865;51.304;9.536;2023-08-01T09:35:52;98293.88;;;20.78;71.58
51807;BME280;37865;51.304;9.536;2023-08-01T09:38:18;98290.41;;;20.81;72.80
51807;BME280;37865;51.304;9.536;2023-08-01T09:40:44;98297.63;;;20.70;72.50
51807;BME280;37865;51.304;9.536;2023-08-01T09:43:11;98283.50;;;20.60;72.33
51807;BME280;37865;51.304;9.536;2023-08-01T09:45:36;98286.81;;;20.97;72.29
51807;BME280;37865;51.304;9.536;2023-08-01T09:48:02;98287.72;;;21.16;70.36
51807;BME280;37865;51.304;9.536;2023-08-01T09:50:28;98286.28;;;21.22;70.47
51807;BME280;37865;51.304;9.536;2023-08-01T09:52:53;98287.06;;;21.38;70.69
51807;BME280;37865;51.304;9.536;2023-08-01T09:57:51;98292.09;;;21.33;69.25
51807;BME280;37865;51.304;9.536;2023-08-01T10:00:18;98298.88;;;21.35;66.23
51807;BME280;37865;51.304;9.536;2023-08-01T10:02:44;98287.22;;;21.45;65.94
51807;BME280;37865;51.304;9.536;2023-08-01T10:05:10;98290.19;;;21.37;67.47
51807;BME280;37865;51.304;9.536;2023-08-01T10:07:38;98283.53;;;21.22;67.55
51807;BME280;37865;51.304;9.536;2023-08-01T10:10:06;98292.28;;;21.09;66.92
51807;BME280;37865;51.304;9.536;2023-08-01T10:12:32;98289.88;;;21.23;65.46
51807;BME280;37865;51.304;9.536;2023-08-01T10:14:58;98285.34;;;21.49;65.20
51807;BME280;37865;51.304;9.536;2023-08-01T10:17:25;98290.16;;;21.87;64.86
51807;BME280;37865;51.304;9.536;2023-08-01T10:19:52;98284.41;;;21.96;63.50
51807;BME280;37865;51.304;9.536;2023-08-01T10:22:19;98291.88;;;21.76;63.11
51807;BME280;37865;51.304;9.536;2023-08-01T10:24:46;98286.69;;;21.40;63.26
51807;BME280;37865;51.304;9.536;2023-08-01T10:27:14;98300.69;;;21.12;65.14
51807;BME280;37865;51.304;9.536;2023-08-01T10:29:41;98318.53;;;20.52;68.63
51807;BME280;37865;51.304;9.536;2023-08-01T10:32:07;98314.09;;;19.68;74.94
51807;BME280;37865;51.304;9.536;2023-08-01T10:34:32;98320.47;;;19.20;77.45
51807;BME280;37865;51.304;9.536;2023-08-01T10:36:59;98314.50;;;19.06;77.61
51807;BME280;37865;51.304;9.536;2023-08-01T10:39:26;98318.41;;;19.17;77.96
51807;BME280;37865;51.304;9.536;2023-08-01T10:42:12;98318.19;;;19.35;75.67
51807;BME280;37865;51.304;9.536;2023-08-01T10:44:45;98315.50;;;19.62;76.47
51807;BME280;37865;51.304;9.536;2023-08-01T10:47:11;98330.34;;;19.82;73.97
51807;BME280;37865;51.304;9.536;2023-08-01T10:49:41;98313.38;;;20.11;74.37
51807;BME280;37865;51.304;9.536;2023-08-01T10:52:21;98310.78;;;20.30;72.51
51807;BME280;37865;51.304;9.536;2023-08-01T10:55:01;98307.13;;;20.85;70.27
51807;BME280;37865;51.304;9.536;2023-08-01T10:57:28;98305.47;;;21.46;69.34
51807;BME280;37865;51.304;9.536;2023-08-01T10:59:55;98310.09;;;21.93;68.84
51807;BME280;37865;51.304;9.536;2023-08-01T11:02:23;98305.03;;;22.36;64.83
51807;BME280;37865;51.304;9.536;2023-08-01T11:05:05;98291.28;;;22.44;59.87
51807;BME280;37865;51.304;9.536;2023-08-01T11:07:31;98299.97;;;22.42;61.81
51807;BME280;37865;51.304;9.536;2023-08-01T11:12:37;98297.81;;;22.13;60.69
51807;BME280;37865;51.304;9.536;2023-08-01T11:15:04;98307.53;;;22.22;60.34
51807;BME280;37865;51.304;9.536;2023-08-01T11:17:31;98289.88;;;22.53;59.37
51807;BME280;37865;51.304;9.536;2023-08-01T11:20:05;98299.97;;;22.61;58.04
51807;BME280;37865;51.304;9.536;2023-08-01T11:22:31;98304.38;;;22.62;57.56
51807;BME280;37865;51.304;9.536;2023-08-01T11:24:57;98299.13;;;22.80;55.98
51807;BME280;37865;51.304;9.536;2023-08-01T11:27:22;98283.47;;;23.17;55.37
51807;BME280;37865;51.304;9.536;2023-08-01T11:29:48;98288.84;;;23.55;52.36
51807;BME280;37865;51.304;9.536;2023-08-01T11:32:13;98285.69;;;23.57;51.63
51807;BME280;37865;51.304;9.536;2023-08-01T11:34:42;98326.47;;;24.02;49.56
51807;BME280;37865;51.304;9.536;2023-08-01T11:37:12;98302.81;;;23.88;49.05
51807;BME280;37865;51.304;9.536;2023-08-01T11:39:39;98301.25;;;23.61;50.05
51807;BME280;37865;51.304;9.536;2023-08-01T11:42:04;98285.03;;;23.67;50.21
51807;BME280;37865;51.304;9.536;2023-08-01T11:44:30;98296.31;;;23.77;50.39
51807;BME280;37865;51.304;9.536;2023-08-01T11:46:56;98302.03;;;23.88;50.82
51807;BME280;37865;51.304;9.536;2023-08-01T11:49:21;98305.84;;;24.06;50.61
51807;BME280;37865;51.304;9.536;2023-08-01T11:51:46;98300.84;;;24.19;50.19
51807;BME280;37865;51.304;9.536;2023-08-01T11:54:13;98316.28;;;24.13;49.16
51807;BME280;37865;51.304;9.536;2023-08-01T11:56:39;98317.72;;;23.73;49.98
51807;BME280;37865;51.304;9.536;2023-08-01T11:59:12;98315.13;;;23.87;49.44
51807;BME280;37865;51.304;9.536;2023-08-01T12:01:39;98317.84;;;24.10;49.99
51807;BME280;37865;51.304;9.536;2023-08-01T12:04:05;98304.03;;;24.54;49.34
51807;BME280;37865;51.304;9.536;2023-08-01T12:06:32;98294.75;;;24.76;48.63
51807;BME280;37865;51.304;9.536;2023-08-01T12:09:07;98319.47;;;24.81;48.09
51807;BME280;37865;51.304;9.536;2023-08-01T12:11:32;98320.88;;;24.64;48.16
51807;BME280;37865;51.304;9.536;2023-08-01T12:14:03;98314.69;;;24.45;48.59
51807;BME280;37865;51.304;9.536;2023-08-01T12:16:28;98331.06;;;24.17;49.44
51807;BME280;37865;51.304;9.536;2023-08-01T12:18:54;98326.25;;;23.87;49.82
51807;BME280;37865;51.304;9.536;2023-08-01T12:21:19;98349.66;;;24.09;48.64
51807;BME280;37865;51.304;9.536;2023-08-01T12:23:44;98327.28;;;24.32;47.90
51807;BME280;37865;51.304;9.536;2023-08-01T12:26:10;98329.66;;;24.33;47.63
51807;BME280;37865;51.304;9.536;2023-08-01T12:28:36;98326.59;;;24.75;47.45
51807;BME280;37865;51.304;9.536;2023-08-01T12:31:01;98330.16;;;25.16;47.42
51807;BME280;37865;51.304;9.536;2023-08-01T12:33:27;98312.00;;;25.36;46.29
51807;BME280;37865;51.304;9.536;2023-08-01T12:35:52;98321.69;;;25.49;46.52
51807;BME280;37865;51.304;9.536;2023-08-01T12:38:17;98330.41;;;25.44;45.77
51807;BME280;37865;51.304;9.536;2023-08-01T12:40:43;98337.31;;;25.13;45.63
51807;BME280;37865;51.304;9.536;2023-08-01T12:43:08;98342.28;;;24.90;45.94
51807;BME280;37865;51.304;9.536;2023-08-01T12:45:33;98338.94;;;24.74;46.66
51807;BME280;37865;51.304;9.536;2023-08-01T12:47:58;98346.31;;;24.59;47.07
51807;BME280;37865;51.304;9.536;2023-08-01T12:50:24;98366.25;;;24.28;47.36
51807;BME280;37865;51.304;9.536;2023-08-01T12:52:49;98356.97;;;23.91;47.64